Atlanta, GA

5:12 AM EST on February 14, 2016 (GMT -0500)
Ansley Park | | Change Station
CLOSE
Current Station
Personal Weather Station
Location: Atlanta, GA
Elevation: 879 ft
Nearby Weather Stations

Elev 879 ft 33.80 °N, 84.38 °W | Updated 32 seconds ago

Clear
Clear
28.6 °F
Feels Like 29 °F
N
0.4
Wind Variable Wind from SE
Gusts 2.5 mph

Today
High -- | Low -- °F
--% Chance of Precip.
Yesterday
High -- | Low -- °F
Precip. -- in
Pressure 30.38 in
Visibility 10.0 miles
Clouds Clear
Windchill 29 °F
Dew Point 4 °F
Humidity 34%
Rainfall 0.00 in
Snow Depth Not available.
7:23 AM 6:20 PM
Waxing Crescent, 40% visible
METAR KPDK 140953Z AUTO VRB03KT 10SM CLR M02/M13 A3032 RMK AO2 SLP285 T10221128 TSNO
Pressure 30.38 in
Visibility 10.0 miles
Clouds Clear
Windchill 29 °F
Dew Point 4 °F
Humidity 34%
Rainfall 0.00 in
Snow Depth Not available.
7:23 AM 6:20 PM
Waxing Crescent, 40% visible
METAR KPDK 140953Z AUTO VRB03KT 10SM CLR M02/M13 A3032 RMK AO2 SLP285 T10221128 TSNO

10-Day Weather Forecast

Almanac

Astronomy

Feb. 14, 2016 Rise Set
Actual Time
Civil Twilight
Nautical Twilight
Astronomical Twilight
Moon
Length of Visible Light
Length of Day
Tomorrow will be .
, % of the Moon is Illuminated

Today's Extremes

State Highs State Lows

Community

WunderPhotos

Upload Photos

1,892,765 photos uploaded!

WunderBlog® & News

Nearby

Air Quality

  Air Quality AQ Index Pollutant
Not available.

Snow Depth

Station Depth Elevation

Earthquake Activity

City Distance Mag. Time & Date
Minimum magnitude displayed is 2.5.

Coastal Water Temperatures

Place Temperature

Stations

Nearby Weather Stations

Station Location Temp. Windchill Dew Point Humidity Wind Precip. Elev Updated Type
                   

Watches & Warnings

There are currently no watches in effect.